createdAt,value
2018-11-22T12:17:37.382Z,18.20
2018-11-22T12:20:06.228Z,17.93
2018-11-22T12:22:34.427Z,18.37
2018-11-22T12:25:02.723Z,19.27
2018-11-22T12:27:30.823Z,19.10
2018-11-22T12:29:58.929Z,19.23
2018-11-22T12:32:32.083Z,19.47
2018-11-22T12:35:04.480Z,18.93
2018-11-22T12:37:39.171Z,19.47
2018-11-22T12:40:06.241Z,20.27
2018-11-22T12:42:34.376Z,17.87
2018-11-22T12:45:03.743Z,19.03
2018-11-22T12:47:32.952Z,19.10
2018-11-22T12:50:01.720Z,19.53
2018-11-22T12:52:29.832Z,18.53
2018-11-22T12:54:58.063Z,18.67
2018-11-22T12:57:26.520Z,19.13
2018-11-22T12:59:55.004Z,18.83
2018-11-22T13:02:23.291Z,18.43
2018-11-22T13:04:51.448Z,18.57
2018-11-22T13:07:19.640Z,19.33
2018-11-22T13:09:47.820Z,19.27
2018-11-22T13:12:15.986Z,18.53
2018-11-22T13:14:44.235Z,18.40
2018-11-22T13:17:12.409Z,18.83
2018-11-22T13:19:40.673Z,18.77
2018-11-22T13:22:09.100Z,19.13
2018-11-22T13:24:37.253Z,19.37
2018-11-22T13:27:05.715Z,18.63
2018-11-22T13:29:33.820Z,18.00
2018-11-22T13:32:01.980Z,18.63
2018-11-22T13:34:30.104Z,19.13
2018-11-22T13:36:58.410Z,17.70
2018-11-22T13:39:26.600Z,18.57
2018-11-22T13:41:54.743Z,19.10
2018-11-22T13:44:23.039Z,19.20
2018-11-22T13:46:51.439Z,17.93
2018-11-22T13:49:19.572Z,18.50
2018-11-22T13:51:47.807Z,19.43
2018-11-22T13:54:15.960Z,18.40
2018-11-22T13:56:44.088Z,18.03
2018-11-22T13:59:12.766Z,18.23
2018-11-22T14:01:40.899Z,18.80
2018-11-22T14:04:09.027Z,18.87
2018-11-22T14:06:37.309Z,19.17
2018-11-22T14:09:07.711Z,18.50
2018-11-22T14:11:35.904Z,19.33
2018-11-22T14:14:04.721Z,18.80
2018-11-22T14:16:32.868Z,18.33
2018-11-22T14:19:01.027Z,17.83
2018-11-22T14:21:29.171Z,17.60
2018-11-22T14:23:57.316Z,18.53
2018-11-22T14:26:25.723Z,18.97
2018-11-22T14:28:53.946Z,19.53
2018-11-22T14:31:22.114Z,18.43
2018-11-22T14:33:50.233Z,17.93
2018-11-22T14:36:18.339Z,19.27
2018-11-22T14:38:46.734Z,19.87
2018-11-22T14:41:14.863Z,18.63
2018-11-22T14:43:43.026Z,19.37
2018-11-22T14:46:11.247Z,19.40
2018-11-22T14:48:39.453Z,20.20
2018-11-22T14:51:14.110Z,19.80
2018-11-22T14:53:42.307Z,19.73
2018-11-22T14:56:10.532Z,19.00
2018-11-22T14:58:38.783Z,19.00
2018-11-22T15:01:07.251Z,17.93
2018-11-22T15:03:35.022Z,17.40
2018-11-22T15:06:03.170Z,18.00
2018-11-22T15:08:31.574Z,18.13
2018-11-22T15:10:59.686Z,18.40
2018-11-22T15:13:27.854Z,18.47
2018-11-22T15:15:56.198Z,17.63
2018-11-22T15:18:24.284Z,18.93
2018-11-22T15:20:52.407Z,18.93
2018-11-22T15:23:20.566Z,18.57
2018-11-22T15:25:48.658Z,19.03
2018-11-22T15:28:17.099Z,18.83
2018-11-22T15:30:45.315Z,17.80
2018-11-22T15:33:13.424Z,17.83
2018-11-22T15:35:41.547Z,19.03
2018-11-22T15:38:09.714Z,20.00
2018-11-22T15:40:37.826Z,18.73
2018-11-22T15:43:06.014Z,18.13
2018-11-22T15:45:35.329Z,19.33
2018-11-22T15:48:02.303Z,18.17
2018-11-22T15:50:30.564Z,18.73
2018-11-22T15:52:58.851Z,19.20
2018-11-22T15:55:27.720Z,18.40
2018-11-22T15:57:57.526Z,19.17
2018-11-22T16:00:27.359Z,18.90
2018-11-22T16:02:56.119Z,19.30
2018-11-22T16:05:25.127Z,19.27
2018-11-22T16:07:53.469Z,20.57
2018-11-22T16:10:28.031Z,20.87
2018-11-22T16:12:58.782Z,20.07
2018-11-22T16:15:34.085Z,19.57
2018-11-22T16:18:02.414Z,20.57
2018-11-22T16:20:30.507Z,19.87
2018-11-22T16:22:58.615Z,19.27
2018-11-22T16:25:26.778Z,19.77
2018-11-22T16:27:54.891Z,20.60
2018-11-22T16:30:25.120Z,18.97
2018-11-22T16:32:53.769Z,19.50
2018-11-22T16:35:22.690Z,20.93
2018-11-22T16:37:50.827Z,20.30
2018-11-22T16:40:20.447Z,20.60
2018-11-22T16:42:49.470Z,21.77
2018-11-22T16:45:22.997Z,19.80
2018-11-22T16:47:51.083Z,19.27
2018-11-22T16:50:20.715Z,20.10
2018-11-22T16:52:49.068Z,20.63
2018-11-22T16:55:17.475Z,20.63
2018-11-22T16:57:46.730Z,20.23
2018-11-22T17:00:25.676Z,21.87
2018-11-22T17:02:54.903Z,21.07
2018-11-22T17:05:23.420Z,20.80
2018-11-22T17:07:51.895Z,22.27
2018-11-22T17:10:21.294Z,20.27
2018-11-22T17:12:50.463Z,21.00
2018-11-22T17:15:19.895Z,22.77
2018-11-22T17:17:48.435Z,22.03
2018-11-22T17:20:17.512Z,21.27
2018-11-22T17:22:46.472Z,22.40
2018-11-22T17:25:17.071Z,22.00
2018-11-22T17:27:46.163Z,20.20
2018-11-22T17:30:16.167Z,22.47
2018-11-22T17:32:44.478Z,21.20
2018-11-22T17:35:14.302Z,22.03
2018-11-22T17:37:42.639Z,21.27
2018-11-22T17:40:15.555Z,21.23
2018-11-22T17:42:43.899Z,21.40
2018-11-22T17:45:14.695Z,21.43
2018-11-22T17:47:42.910Z,19.73
2018-11-22T17:50:14.182Z,21.47
2018-11-22T17:52:42.759Z,21.43
2018-11-22T17:55:14.704Z,20.43
2018-11-22T17:57:42.908Z,20.87
2018-11-22T18:00:15.088Z,21.10
2018-11-22T18:02:43.870Z,21.27
2018-11-22T18:05:12.103Z,21.57
2018-11-22T18:07:40.207Z,21.23
2018-11-22T18:10:10.901Z,21.57
2018-11-22T18:12:39.183Z,20.40
2018-11-22T18:15:09.221Z,21.27
2018-11-22T18:17:37.996Z,21.20
2018-11-22T18:20:11.900Z,21.63
2018-11-22T18:22:40.054Z,21.97
2018-11-22T18:25:10.297Z,21.07
2018-11-22T18:27:38.583Z,21.13
2018-11-22T18:30:12.250Z,21.87
2018-11-22T18:32:40.387Z,20.63
2018-11-22T18:35:10.279Z,22.03
2018-11-22T18:37:38.615Z,21.47
2018-11-22T18:40:09.639Z,22.40
2018-11-22T18:42:37.799Z,22.00
2018-11-22T18:45:09.495Z,23.97
2018-11-22T18:47:37.618Z,21.90
2018-11-22T18:50:15.548Z,21.37
2018-11-22T18:52:38.358Z,22.87
2018-11-22T18:55:08.148Z,24.07
2018-11-22T18:57:36.275Z,22.57
2018-11-22T19:00:08.171Z,21.63
2018-11-22T19:02:36.307Z,23.60
2018-11-22T19:05:04.443Z,23.27
2018-11-22T19:07:32.853Z,22.70
2018-11-22T19:10:00.998Z,21.97
2018-11-22T19:12:29.251Z,22.83
2018-11-22T19:14:57.416Z,21.63
2018-11-22T19:17:25.559Z,22.87
2018-11-22T19:19:53.661Z,22.63
2018-11-22T19:22:22.128Z,22.50
2018-11-22T19:24:50.231Z,22.57
2018-11-22T19:27:18.911Z,21.47
2018-11-22T19:29:47.067Z,21.80
2018-11-22T19:32:16.067Z,23.23
2018-11-22T19:34:44.167Z,22.87
2018-11-22T19:37:12.322Z,22.07
2018-11-22T19:39:40.447Z,23.10
2018-11-22T19:42:08.618Z,22.13
2018-11-22T19:44:36.703Z,22.63
2018-11-22T19:47:04.828Z,21.80
2018-11-22T19:49:33.004Z,22.87
2018-11-22T19:52:01.114Z,21.93
2018-11-22T19:54:29.194Z,21.80
2018-11-22T19:56:57.330Z,22.63
2018-11-22T19:59:25.428Z,22.23
2018-11-22T20:01:53.572Z,23.50
2018-11-22T20:04:21.716Z,22.90
2018-11-22T20:06:49.892Z,23.40
2018-11-22T20:09:18.023Z,22.73
2018-11-22T20:11:46.338Z,24.57
2018-11-22T20:14:14.443Z,23.97
2018-11-22T20:16:42.595Z,22.97
2018-11-22T20:19:10.715Z,24.00
2018-11-22T20:21:38.827Z,24.20
2018-11-22T20:24:07.006Z,25.10
2018-11-22T20:26:35.151Z,24.70
2018-11-22T20:29:03.258Z,24.80
2018-11-22T20:31:31.426Z,24.80
2018-11-22T20:33:59.691Z,24.70
2018-11-22T20:36:27.793Z,23.73
2018-11-22T20:38:55.944Z,24.57
2018-11-22T20:41:24.074Z,23.20
2018-11-22T20:43:52.241Z,23.90
2018-11-22T20:46:20.432Z,23.83
2018-11-22T20:48:48.547Z,24.37
2018-11-22T20:51:16.657Z,23.97
2018-11-22T20:53:44.871Z,23.30
2018-11-22T20:56:13.006Z,23.57
2018-11-22T20:58:41.179Z,23.07
2018-11-22T21:01:09.358Z,22.40
2018-11-22T21:03:37.496Z,23.73
2018-11-22T21:06:05.668Z,24.17
2018-11-22T21:08:33.807Z,23.37
2018-11-22T21:11:02.047Z,22.80
2018-11-22T21:13:30.359Z,22.40
2018-11-22T21:15:58.486Z,21.80
2018-11-22T21:18:26.611Z,22.90
2018-11-22T21:20:54.830Z,22.10
2018-11-22T21:23:22.975Z,22.37
2018-11-22T21:25:51.098Z,22.43
2018-11-22T21:28:19.277Z,20.63
2018-11-22T21:30:47.480Z,22.67
2018-11-22T21:33:15.604Z,22.37
2018-11-22T21:35:43.755Z,23.50
2018-11-22T21:38:11.890Z,22.13
2018-11-22T21:40:40.085Z,22.03
2018-11-22T21:43:08.532Z,21.67
2018-11-22T21:45:36.654Z,21.93
2018-11-22T21:48:05.056Z,21.93
2018-11-22T21:50:33.236Z,22.20
2018-11-22T21:53:01.486Z,21.83
2018-11-22T21:55:30.781Z,21.70
2018-11-22T21:58:00.310Z,21.93
2018-11-22T22:00:31.606Z,21.73
2018-11-22T22:03:01.572Z,22.20
2018-11-22T22:05:29.728Z,22.77
2018-11-22T22:07:57.934Z,22.00
2018-11-22T22:10:26.171Z,21.83
2018-11-22T22:12:54.325Z,22.03
2018-11-22T22:15:23.867Z,21.20
2018-11-22T22:17:52.001Z,21.20
2018-11-22T22:20:23.564Z,20.40
2018-11-22T22:22:51.734Z,21.73
2018-11-22T22:25:20.938Z,21.20
2018-11-22T22:27:49.811Z,21.30
2018-11-22T22:30:19.350Z,21.90
2018-11-22T22:32:48.495Z,22.27
2018-11-22T22:35:16.641Z,21.97
2018-11-22T22:37:44.780Z,22.03
2018-11-22T22:40:15.895Z,21.47
2018-11-22T22:42:45.052Z,22.60
2018-11-22T22:45:14.005Z,21.90
2018-11-22T22:47:42.638Z,22.53
2018-11-22T22:50:13.296Z,23.27
2018-11-22T22:52:41.493Z,22.07
2018-11-22T22:55:10.397Z,23.63
2018-11-22T22:57:38.606Z,23.40
2018-11-22T23:00:16.459Z,22.17
2018-11-22T23:02:44.863Z,23.40
2018-11-22T23:05:13.057Z,22.90
2018-11-22T23:07:41.191Z,22.53
2018-11-22T23:10:09.364Z,22.60
2018-11-22T23:12:37.595Z,22.53
2018-11-22T23:15:08.414Z,22.90
2018-11-22T23:17:36.577Z,23.07
2018-11-22T23:20:06.200Z,23.57
2018-11-22T23:22:34.303Z,22.03
2018-11-22T23:25:02.592Z,22.03
2018-11-22T23:27:30.694Z,22.67
2018-11-22T23:29:58.845Z,22.00
2018-11-22T23:32:27.035Z,23.33
2018-11-22T23:34:55.155Z,22.97
2018-11-22T23:37:23.655Z,22.10
2018-11-22T23:39:52.117Z,20.93
2018-11-22T23:42:20.283Z,22.50
2018-11-22T23:44:48.431Z,22.27
2018-11-22T23:47:16.744Z,22.03
2018-11-22T23:49:44.924Z,22.17
2018-11-22T23:52:13.207Z,22.80
2018-11-22T23:54:41.616Z,22.47
2018-11-22T23:57:09.731Z,21.97
2018-11-22T23:59:37.847Z,22.97
